createdAt,value
2019-06-20T00:01:56.649Z,25.20
2019-06-20T00:04:23.528Z,25.10
2019-06-20T00:06:51.524Z,25.10
2019-06-20T00:09:18.500Z,25.10
2019-06-20T00:11:45.525Z,25.10
2019-06-20T00:14:12.478Z,25.10
2019-06-20T00:16:39.553Z,25.00
2019-06-20T00:19:06.609Z,25.00
2019-06-20T00:21:33.559Z,25.00
2019-06-20T00:24:00.650Z,25.00
2019-06-20T00:26:27.626Z,25.00
2019-06-20T00:28:54.593Z,25.00
2019-06-20T00:31:21.587Z,25.00
2019-06-20T00:33:48.634Z,24.90
2019-06-20T00:36:15.518Z,24.90
2019-06-20T00:38:42.515Z,24.80
2019-06-20T00:41:09.511Z,24.80
2019-06-20T00:43:36.740Z,24.80
2019-06-20T00:46:03.787Z,24.80
2019-06-20T00:48:32.540Z,24.80
2019-06-20T00:50:59.583Z,24.80
2019-06-20T00:53:26.588Z,24.70
2019-06-20T00:55:53.685Z,24.60
2019-06-20T00:58:20.717Z,24.70
2019-06-20T01:00:47.765Z,24.60
2019-06-20T01:03:14.724Z,24.60
2019-06-20T01:05:41.650Z,24.60
2019-06-20T01:08:08.661Z,24.50
2019-06-20T01:10:36.566Z,24.50
2019-06-20T01:13:05.271Z,24.50
2019-06-20T01:15:32.225Z,24.50
2019-06-20T01:17:59.280Z,24.50
2019-06-20T01:20:26.514Z,24.50
2019-06-20T01:22:53.577Z,24.40
2019-06-20T01:25:35.739Z,24.40
2019-06-20T01:28:02.899Z,24.30
2019-06-20T01:30:30.005Z,24.40
2019-06-20T01:32:58.889Z,24.30
2019-06-20T01:35:25.831Z,24.30
2019-06-20T01:37:52.829Z,24.30
2019-06-20T01:40:19.730Z,24.30
2019-06-20T01:42:46.751Z,24.20
2019-06-20T01:45:13.769Z,24.20
2019-06-20T01:47:40.902Z,24.20
2019-06-20T01:50:07.841Z,24.10
2019-06-20T01:52:34.764Z,24.10
2019-06-20T01:55:02.107Z,24.10
2019-06-20T01:57:29.076Z,24.10
2019-06-20T01:59:56.065Z,24.00
2019-06-20T02:02:23.049Z,24.00
2019-06-20T02:04:50.163Z,23.90
2019-06-20T02:07:17.100Z,24.00
2019-06-20T02:09:44.123Z,23.90
2019-06-20T02:12:11.096Z,23.90
2019-06-20T02:14:38.029Z,23.90
2019-06-20T02:17:07.417Z,23.90
2019-06-20T02:19:34.425Z,23.90
2019-06-20T02:22:01.380Z,23.80
2019-06-20T02:24:28.409Z,23.80
2019-06-20T02:26:55.383Z,23.80
2019-06-20T02:29:22.387Z,23.80
2019-06-20T02:31:49.478Z,23.70
2019-06-20T02:34:16.462Z,23.70
2019-06-20T02:36:43.444Z,23.60
2019-06-20T02:39:10.391Z,23.70
2019-06-20T02:41:39.080Z,23.60
2019-06-20T02:44:06.149Z,23.60
2019-06-20T02:46:33.340Z,23.50
2019-06-20T02:49:00.334Z,23.50
2019-06-20T02:51:30.703Z,23.50
2019-06-20T02:53:57.656Z,23.40
2019-06-20T02:56:24.527Z,23.40
2019-06-20T02:58:51.546Z,23.40
2019-06-20T03:01:18.417Z,23.30
2019-06-20T03:03:45.441Z,23.30
2019-06-20T03:06:12.328Z,23.30
2019-06-20T03:08:39.271Z,23.20
2019-06-20T03:11:06.908Z,23.20
2019-06-20T03:13:33.889Z,23.20
2019-06-20T03:16:00.820Z,23.20
2019-06-20T03:18:27.780Z,23.20
2019-06-20T03:20:56.667Z,23.10
2019-06-20T03:23:23.700Z,23.10
2019-06-20T03:25:50.596Z,23.10
2019-06-20T03:28:17.640Z,23.10
2019-06-20T03:30:44.611Z,23.10
2019-06-20T03:33:11.614Z,23.10
2019-06-20T03:35:38.519Z,23.10
2019-06-20T03:38:06.769Z,23.10
2019-06-20T03:40:33.787Z,23.00
2019-06-20T03:43:00.916Z,23.00
2019-06-20T03:45:27.953Z,23.00
2019-06-20T03:47:55.080Z,22.90
2019-06-20T03:50:22.203Z,22.90
2019-06-20T03:52:51.161Z,22.80
2019-06-20T03:55:18.105Z,22.80
2019-06-20T03:57:45.103Z,22.80
2019-06-20T04:00:12.568Z,22.80
2019-06-20T04:02:39.512Z,22.80
2019-06-20T04:05:06.692Z,22.80
2019-06-20T04:07:33.757Z,22.70
2019-06-20T04:10:00.786Z,22.70
2019-06-20T04:12:27.857Z,22.70
2019-06-20T04:14:54.778Z,22.60
2019-06-20T04:17:21.785Z,22.60
2019-06-20T04:19:48.798Z,22.60
2019-06-20T04:22:15.677Z,22.60
2019-06-20T04:24:42.794Z,22.60
2019-06-20T04:27:09.836Z,22.50
2019-06-20T04:29:37.831Z,22.50
2019-06-20T04:32:04.822Z,22.50
2019-06-20T04:34:31.877Z,22.50
2019-06-20T04:36:58.868Z,22.40
2019-06-20T04:39:25.869Z,22.50
2019-06-20T04:41:52.822Z,22.50
2019-06-20T04:44:19.757Z,22.50
2019-06-20T04:47:03.458Z,22.50
2019-06-20T04:49:30.605Z,22.50
2019-06-20T04:51:57.661Z,22.50
2019-06-20T04:54:24.600Z,22.60
2019-06-20T04:56:51.636Z,22.60
2019-06-20T04:59:18.719Z,22.50
2019-06-20T05:01:45.818Z,22.60
2019-06-20T05:04:12.805Z,22.60
2019-06-20T05:06:42.853Z,22.60
2019-06-20T05:09:09.920Z,22.60
2019-06-20T05:11:36.908Z,22.60
2019-06-20T05:14:03.921Z,22.60
2019-06-20T05:16:30.968Z,22.70
2019-06-20T05:18:57.850Z,22.70
2019-06-20T05:21:24.819Z,22.80
2019-06-20T05:23:51.840Z,22.80
2019-06-20T05:26:18.991Z,22.90
2019-06-20T05:28:46.069Z,22.90
2019-06-20T05:31:13.113Z,22.90
2019-06-20T05:33:40.187Z,22.90
2019-06-20T05:36:07.235Z,23.00
2019-06-20T05:38:34.414Z,23.00
2019-06-20T05:41:01.384Z,23.00
2019-06-20T05:43:28.503Z,23.00
2019-06-20T05:46:08.359Z,23.00
2019-06-20T05:48:26.069Z,23.00
2019-06-20T05:50:52.979Z,23.00
2019-06-20T05:53:20.058Z,22.90
2019-06-20T05:55:47.040Z,23.00
2019-06-20T05:58:14.131Z,23.00
2019-06-20T06:00:41.278Z,23.00
2019-06-20T06:03:08.454Z,23.10
2019-06-20T06:05:37.057Z,23.10
2019-06-20T06:08:05.309Z,23.00
2019-06-20T06:10:32.427Z,23.20
2019-06-20T06:12:59.401Z,23.30
2019-06-20T06:15:26.343Z,23.50
2019-06-20T06:17:53.239Z,23.70
2019-06-20T06:20:20.426Z,23.80
2019-06-20T06:22:47.450Z,23.90
2019-06-20T06:25:14.822Z,23.90
2019-06-20T06:27:42.062Z,23.90
2019-06-20T06:30:09.839Z,23.80
2019-06-20T06:32:40.342Z,23.90
2019-06-20T06:35:07.675Z,23.90
2019-06-20T06:37:35.676Z,23.90
2019-06-20T06:40:06.675Z,23.90
2019-06-20T06:42:36.622Z,23.90
2019-06-20T06:45:05.127Z,23.80
2019-06-20T06:47:34.093Z,23.90
2019-06-20T06:50:01.273Z,24.10
2019-06-20T06:52:28.383Z,24.10
2019-06-20T06:54:55.386Z,24.10
2019-06-20T06:57:22.469Z,24.20
2019-06-20T06:59:50.043Z,24.20
2019-06-20T07:02:17.348Z,24.20
2019-06-20T07:04:44.999Z,24.30
2019-06-20T07:07:12.500Z,24.30
2019-06-20T07:09:39.958Z,24.30
2019-06-20T07:12:06.929Z,24.20
2019-06-20T07:14:34.031Z,24.10
2019-06-20T07:17:01.101Z,24.20
2019-06-20T07:19:28.143Z,24.30
2019-06-20T07:21:55.122Z,24.40
2019-06-20T07:24:22.028Z,24.30
2019-06-20T07:26:49.052Z,24.20
2019-06-20T07:29:15.959Z,24.10
2019-06-20T07:31:43.063Z,24.00
2019-06-20T07:34:10.151Z,23.90
2019-06-20T07:36:37.274Z,23.90
2019-06-20T07:39:14.357Z,23.80
2019-06-20T07:41:41.353Z,23.80
2019-06-20T07:44:08.486Z,23.70
2019-06-20T07:46:35.569Z,23.70
2019-06-20T07:49:02.810Z,23.70
2019-06-20T07:51:30.256Z,23.70
2019-06-20T07:53:57.260Z,23.70
2019-06-20T07:56:24.339Z,23.70
2019-06-20T07:58:51.335Z,23.80
2019-06-20T08:01:18.380Z,23.80
2019-06-20T08:03:45.426Z,23.80
2019-06-20T08:06:12.454Z,23.90
2019-06-20T08:08:39.410Z,24.00
2019-06-20T08:11:06.512Z,24.00
2019-06-20T08:13:33.514Z,24.10
2019-06-20T08:16:03.611Z,24.10
2019-06-20T08:18:29.446Z,24.10
2019-06-20T08:20:56.525Z,24.20
2019-06-20T08:23:23.710Z,24.20
2019-06-20T08:25:50.794Z,24.20
2019-06-20T08:28:17.943Z,24.20
2019-06-20T08:30:44.971Z,24.20
2019-06-20T08:33:12.435Z,24.20
2019-06-20T08:35:39.708Z,24.20
2019-06-20T08:38:07.587Z,24.20
2019-06-20T08:40:37.470Z,24.20
2019-06-20T08:43:04.583Z,24.30
2019-06-20T08:45:33.266Z,24.30
2019-06-20T08:48:00.704Z,24.30
2019-06-20T08:50:28.204Z,24.30
2019-06-20T08:52:57.608Z,24.30
2019-06-20T08:55:24.348Z,24.30
2019-06-20T08:57:51.756Z,24.40
2019-06-20T09:00:20.289Z,24.40
2019-06-20T09:02:48.000Z,24.50
2019-06-20T09:05:17.243Z,24.50
2019-06-20T09:07:44.436Z,24.50
2019-06-20T09:10:11.881Z,24.60
2019-06-20T09:12:39.149Z,24.60
2019-06-20T09:15:07.020Z,24.70
2019-06-20T09:17:34.655Z,24.70
2019-06-20T09:20:02.902Z,24.80
2019-06-20T09:22:30.179Z,24.90
2019-06-20T09:24:58.402Z,24.80
2019-06-20T09:27:25.643Z,24.80
2019-06-20T09:29:53.262Z,24.80
2019-06-20T09:32:21.504Z,24.80
2019-06-20T09:34:51.354Z,24.80
2019-06-20T09:37:17.825Z,24.80
2019-06-20T09:39:44.914Z,24.80
2019-06-20T09:42:12.114Z,24.80
2019-06-20T09:44:39.069Z,24.80
2019-06-20T09:47:06.120Z,24.90
2019-06-20T09:49:33.897Z,25.00
2019-06-20T09:52:01.000Z,25.00
2019-06-20T09:54:28.060Z,25.10
2019-06-20T09:56:56.921Z,25.10
2019-06-20T09:59:27.927Z,25.20
2019-06-20T10:01:53.505Z,25.10
2019-06-20T10:04:21.850Z,25.30
2019-06-20T10:06:50.159Z,25.20
2019-06-20T10:09:17.220Z,25.30
2019-06-20T10:11:45.326Z,25.30
2019-06-20T10:14:13.432Z,25.30
2019-06-20T10:16:45.900Z,25.40
2019-06-20T10:19:09.237Z,25.30
2019-06-20T10:21:36.145Z,25.30
2019-06-20T10:24:03.254Z,25.40
2019-06-20T10:26:30.230Z,25.40
2019-06-20T10:28:57.458Z,25.40
2019-06-20T10:31:24.641Z,25.50
2019-06-20T10:33:52.528Z,25.50
2019-06-20T10:36:19.624Z,25.60
2019-06-20T10:38:47.997Z,25.60
2019-06-20T10:41:15.098Z,25.60
2019-06-20T10:43:43.047Z,25.70
2019-06-20T10:46:11.154Z,25.70
2019-06-20T10:48:38.235Z,25.70
2019-06-20T10:51:23.979Z,25.70
2019-06-20T10:53:51.507Z,25.80
2019-06-20T10:56:18.570Z,25.80
2019-06-20T10:58:46.376Z,25.70
2019-06-20T11:01:13.410Z,25.70
2019-06-20T11:03:41.835Z,25.70
2019-06-20T11:06:09.017Z,25.80
2019-06-20T11:08:36.111Z,25.70
2019-06-20T11:11:03.311Z,25.70
2019-06-20T11:13:30.324Z,25.60
2019-06-20T11:15:57.248Z,25.50
2019-06-20T11:18:24.327Z,25.50
2019-06-20T11:20:51.402Z,25.40
2019-06-20T11:23:18.573Z,25.30
2019-06-20T11:25:46.617Z,25.30
2019-06-20T11:28:14.917Z,25.30
2019-06-20T11:30:52.656Z,25.20
2019-06-20T11:33:10.796Z,25.20
2019-06-20T11:35:37.931Z,25.20
2019-06-20T11:38:06.138Z,25.20
2019-06-20T11:40:33.097Z,25.20
2019-06-20T11:43:00.145Z,25.20
2019-06-20T11:45:27.217Z,25.20
2019-06-20T11:47:54.206Z,25.30
2019-06-20T11:50:21.508Z,25.30
2019-06-20T11:52:48.526Z,25.20
2019-06-20T11:55:16.329Z,25.20
2019-06-20T11:57:43.383Z,25.10
2019-06-20T12:00:11.324Z,25.10
2019-06-20T12:02:40.504Z,25.00
2019-06-20T12:05:07.335Z,25.00
2019-06-20T12:07:34.338Z,24.90
2019-06-20T12:10:01.296Z,24.90
2019-06-20T12:12:28.473Z,24.90
2019-06-20T12:14:55.581Z,24.90
2019-06-20T12:17:22.693Z,24.80
2019-06-20T12:19:49.761Z,24.90
2019-06-20T12:22:16.912Z,24.90
2019-06-20T12:24:44.521Z,24.90
2019-06-20T12:27:11.538Z,24.90
2019-06-20T12:29:40.265Z,24.90
2019-06-20T12:32:10.009Z,25.00
2019-06-20T12:34:36.193Z,25.00
2019-06-20T12:37:03.116Z,25.00
2019-06-20T12:39:30.188Z,25.00
2019-06-20T12:41:57.218Z,25.10
2019-06-20T12:44:24.255Z,25.20
2019-06-20T12:46:51.393Z,25.30
2019-06-20T12:49:18.462Z,25.40
2019-06-20T12:51:46.715Z,25.50
2019-06-20T12:54:14.224Z,25.40
2019-06-20T12:56:41.919Z,25.40
2019-06-20T12:59:09.017Z,25.40
2019-06-20T13:01:40.545Z,25.30
2019-06-20T13:04:04.978Z,25.30
2019-06-20T13:06:31.926Z,25.30
2019-06-20T13:08:58.909Z,25.30
2019-06-20T13:11:26.074Z,25.30
2019-06-20T13:13:53.187Z,25.40
2019-06-20T13:16:20.361Z,25.50
2019-06-20T13:18:48.327Z,25.60
2019-06-20T13:21:21.410Z,25.70
2019-06-20T13:23:49.605Z,25.70
2019-06-20T13:26:19.047Z,25.80
2019-06-20T13:29:00.634Z,25.80
2019-06-20T13:31:15.692Z,25.90
2019-06-20T13:33:42.971Z,25.90
2019-06-20T13:36:10.410Z,25.90
2019-06-20T13:38:37.990Z,25.90
2019-06-20T13:41:09.976Z,25.90
2019-06-20T13:43:36.935Z,25.90
2019-06-20T13:46:06.516Z,25.90
2019-06-20T13:48:33.779Z,26.00
2019-06-20T13:51:00.794Z,26.00
2019-06-20T13:53:27.812Z,26.00
2019-06-20T13:55:55.177Z,26.00
2019-06-20T13:58:22.750Z,26.00
2019-06-20T14:00:50.979Z,26.00
2019-06-20T14:03:18.360Z,25.90
2019-06-20T14:05:47.187Z,25.90
2019-06-20T14:08:14.695Z,25.90
2019-06-20T14:10:44.120Z,25.90
2019-06-20T14:13:19.016Z,25.90
2019-06-20T14:15:42.624Z,25.80
2019-06-20T14:18:09.486Z,25.80
2019-06-20T14:20:36.619Z,25.70
2019-06-20T14:23:04.466Z,25.70
2019-06-20T14:25:34.212Z,25.70
2019-06-20T14:28:00.615Z,25.60
2019-06-20T14:30:27.746Z,25.70
2019-06-20T14:32:56.002Z,25.40
2019-06-20T14:35:23.467Z,25.10
2019-06-20T14:37:51.696Z,24.70
2019-06-20T14:40:19.415Z,24.50
2019-06-20T14:42:50.410Z,24.20
2019-06-20T14:45:18.040Z,24.10
2019-06-20T14:47:44.978Z,24.00
2019-06-20T14:50:13.171Z,23.90
2019-06-20T14:52:40.250Z,23.80
2019-06-20T14:55:08.037Z,23.80
2019-06-20T14:57:35.249Z,23.80
2019-06-20T15:00:02.569Z,23.90
2019-06-20T15:02:38.411Z,23.80
2019-06-20T15:04:58.670Z,23.80
2019-06-20T15:07:25.860Z,23.90
2019-06-20T15:09:57.890Z,23.90
2019-06-20T15:12:24.909Z,23.80
2019-06-20T15:14:53.364Z,23.80
2019-06-20T15:17:20.600Z,23.80
2019-06-20T15:19:47.854Z,23.80
2019-06-20T15:22:16.481Z,23.90
2019-06-20T15:24:45.127Z,24.00
2019-06-20T15:27:12.562Z,24.10
2019-06-20T15:29:40.849Z,24.10
2019-06-20T15:32:07.849Z,24.10
2019-06-20T15:34:34.863Z,24.10
2019-06-20T15:37:06.173Z,24.10
2019-06-20T15:39:31.014Z,24.10
2019-06-20T15:41:58.231Z,24.00
2019-06-20T15:44:25.378Z,24.00
2019-06-20T15:46:52.274Z,24.00
2019-06-20T15:49:19.339Z,24.00
2019-06-20T15:51:46.777Z,24.00
2019-06-20T15:54:13.865Z,24.10
2019-06-20T15:56:40.916Z,24.10
2019-06-20T15:59:08.000Z,24.10
2019-06-20T16:01:35.089Z,24.20
2019-06-20T16:04:02.152Z,24.20
2019-06-20T16:06:29.053Z,24.20
2019-06-20T16:08:56.059Z,24.20
2019-06-20T16:11:23.043Z,24.20
2019-06-20T16:13:50.285Z,24.20
2019-06-20T16:16:17.436Z,24.20
2019-06-20T16:18:44.469Z,24.20
2019-06-20T16:21:11.400Z,24.30
2019-06-20T16:23:38.499Z,24.20
2019-06-20T16:26:05.580Z,24.20
2019-06-20T16:28:32.569Z,24.30
2019-06-20T16:31:08.747Z,24.40
2019-06-20T16:33:28.782Z,24.40
2019-06-20T16:35:55.780Z,24.50
2019-06-20T16:38:23.073Z,24.50
2019-06-20T16:40:50.056Z,24.50
2019-06-20T16:43:17.067Z,24.50
2019-06-20T16:45:47.977Z,24.40
2019-06-20T16:48:15.147Z,24.40
2019-06-20T16:50:42.307Z,24.40
2019-06-20T16:53:09.326Z,24.40
2019-06-20T16:55:36.474Z,24.40
2019-06-20T16:58:03.855Z,24.40
2019-06-20T17:00:31.104Z,24.40
2019-06-20T17:02:58.250Z,24.40
2019-06-20T17:05:25.302Z,24.40
2019-06-20T17:07:52.582Z,24.40
2019-06-20T17:10:20.327Z,24.20
2019-06-20T17:12:47.289Z,24.20
2019-06-20T17:15:14.393Z,24.00
2019-06-20T17:17:41.451Z,23.90
2019-06-20T17:20:08.806Z,23.80
2019-06-20T17:22:35.744Z,23.80
2019-06-20T17:25:02.839Z,23.70
2019-06-20T17:27:29.925Z,23.70
2019-06-20T17:29:56.926Z,23.70
2019-06-20T17:32:23.957Z,23.70
2019-06-20T17:34:51.138Z,23.70
2019-06-20T17:37:18.183Z,23.70
2019-06-20T17:39:45.806Z,23.70
2019-06-20T17:42:13.042Z,23.60
2019-06-20T17:44:40.900Z,23.60
2019-06-20T17:47:08.227Z,23.60
2019-06-20T17:49:35.482Z,23.50
2019-06-20T17:52:03.339Z,23.50
2019-06-20T17:54:30.886Z,23.50
2019-06-20T17:57:00.918Z,23.40
2019-06-20T17:59:28.528Z,23.40
2019-06-20T18:01:57.638Z,23.30
2019-06-20T18:04:26.802Z,23.20
2019-06-20T18:06:53.554Z,23.20
2019-06-20T18:09:20.545Z,23.20
2019-06-20T18:11:47.652Z,23.10
2019-06-20T18:14:14.727Z,23.10
2019-06-20T18:16:41.750Z,23.10
2019-06-20T18:19:08.752Z,23.20
2019-06-20T18:21:36.104Z,23.20
2019-06-20T18:24:03.121Z,23.20
2019-06-20T18:26:30.200Z,23.20
2019-06-20T18:28:57.304Z,23.10
2019-06-20T18:31:24.356Z,23.10
2019-06-20T18:33:51.433Z,23.00
2019-06-20T18:36:18.393Z,23.00
2019-06-20T18:38:45.311Z,22.90
2019-06-20T18:41:14.380Z,22.80
2019-06-20T18:43:41.491Z,22.70
2019-06-20T18:46:08.492Z,22.60
2019-06-20T18:48:35.485Z,22.60
2019-06-20T18:51:05.054Z,22.60
2019-06-20T18:53:32.005Z,22.50
2019-06-20T18:55:58.973Z,22.40
2019-06-20T18:58:26.008Z,22.40
2019-06-20T19:00:52.899Z,22.30
2019-06-20T19:03:21.406Z,22.30
2019-06-20T19:05:48.646Z,22.20
2019-06-20T19:08:15.811Z,22.10
2019-06-20T19:10:42.898Z,22.10
2019-06-20T19:13:12.882Z,22.10
2019-06-20T19:15:38.815Z,22.10
2019-06-20T19:18:05.846Z,22.00
2019-06-20T19:20:32.779Z,21.90
2019-06-20T19:22:59.895Z,21.90
2019-06-20T19:25:26.977Z,21.90
2019-06-20T19:27:54.231Z,21.90
2019-06-20T19:30:30.663Z,21.80
2019-06-20T19:32:57.645Z,21.80
2019-06-20T19:35:25.800Z,21.80
2019-06-20T19:37:52.793Z,21.80
2019-06-20T19:40:23.095Z,21.80
2019-06-20T19:42:50.069Z,21.80
2019-06-20T19:45:17.197Z,21.80
2019-06-20T19:47:44.408Z,21.70
2019-06-20T19:50:11.591Z,21.70
2019-06-20T19:52:38.773Z,21.70
2019-06-20T19:55:05.955Z,21.70
2019-06-20T19:57:32.947Z,21.80
2019-06-20T19:59:59.873Z,21.70
2019-06-20T20:02:27.154Z,21.70
2019-06-20T20:04:54.174Z,21.70
2019-06-20T20:07:21.187Z,21.70
2019-06-20T20:09:48.522Z,21.70
2019-06-20T20:12:15.638Z,21.70
2019-06-20T20:14:42.622Z,21.60
2019-06-20T20:17:09.709Z,21.60
2019-06-20T20:19:40.124Z,21.50
2019-06-20T20:22:07.148Z,21.50
2019-06-20T20:24:34.158Z,21.50
2019-06-20T20:27:01.249Z,21.50
2019-06-20T20:29:28.362Z,21.40
2019-06-20T20:31:55.486Z,21.40
2019-06-20T20:34:22.588Z,21.40
2019-06-20T20:36:49.655Z,21.40
2019-06-20T20:39:17.285Z,21.30
2019-06-20T20:41:46.500Z,21.20
2019-06-20T20:44:16.254Z,21.20
2019-06-20T20:46:43.155Z,21.20
2019-06-20T20:49:11.159Z,21.20
2019-06-20T20:51:38.278Z,21.20
2019-06-20T20:54:05.323Z,21.10
2019-06-20T20:56:32.338Z,21.10
2019-06-20T20:58:59.266Z,21.10
2019-06-20T21:01:29.817Z,21.10
2019-06-20T21:03:57.250Z,21.00
2019-06-20T21:06:24.269Z,21.10
2019-06-20T21:08:51.352Z,21.00
2019-06-20T21:11:18.429Z,21.00
2019-06-20T21:13:45.321Z,20.90
2019-06-20T21:16:12.410Z,20.90
2019-06-20T21:18:39.544Z,20.90
2019-06-20T21:21:06.712Z,21.00
2019-06-20T21:23:33.718Z,20.90
2019-06-20T21:26:00.724Z,20.90
2019-06-20T21:28:27.693Z,20.80
2019-06-20T21:30:54.742Z,20.80
2019-06-20T21:33:21.872Z,20.80
2019-06-20T21:35:48.890Z,20.80
2019-06-20T21:38:15.889Z,20.80
2019-06-20T21:40:42.987Z,20.80
2019-06-20T21:43:10.058Z,20.80
2019-06-20T21:45:37.025Z,20.80
2019-06-20T21:48:04.123Z,20.70
2019-06-20T21:50:31.315Z,20.70
2019-06-20T21:52:58.291Z,20.70
2019-06-20T21:55:25.228Z,20.70
2019-06-20T21:57:52.357Z,20.70
2019-06-20T22:00:25.789Z,20.70
2019-06-20T22:02:55.072Z,20.70
2019-06-20T22:05:22.118Z,20.70
2019-06-20T22:07:49.148Z,20.60
2019-06-20T22:10:16.402Z,20.60
2019-06-20T22:12:43.839Z,20.60
2019-06-20T22:15:11.076Z,20.50
2019-06-20T22:17:38.076Z,20.50
2019-06-20T22:20:06.074Z,20.50
2019-06-20T22:22:33.097Z,20.50
2019-06-20T22:25:00.049Z,20.40
2019-06-20T22:27:27.065Z,20.40
2019-06-20T22:29:54.076Z,20.30
2019-06-20T22:32:21.089Z,20.30
2019-06-20T22:34:48.165Z,20.30
2019-06-20T22:37:15.149Z,20.30
2019-06-20T22:39:42.206Z,20.30
2019-06-20T22:42:09.198Z,20.30
2019-06-20T22:44:38.018Z,20.30
2019-06-20T22:47:04.993Z,20.30
2019-06-20T22:49:33.946Z,20.30
2019-06-20T22:52:02.702Z,20.20
2019-06-20T22:54:29.720Z,20.20
2019-06-20T22:56:56.729Z,20.10
2019-06-20T22:59:23.713Z,20.10
2019-06-20T23:01:50.729Z,20.10
2019-06-20T23:04:17.732Z,20.00
2019-06-20T23:06:55.820Z,20.00
2019-06-20T23:09:13.489Z,19.90
2019-06-20T23:11:40.553Z,19.90
2019-06-20T23:14:07.444Z,19.80
2019-06-20T23:16:34.368Z,19.80
2019-06-20T23:19:01.451Z,19.70
2019-06-20T23:21:30.202Z,19.70
2019-06-20T23:23:57.481Z,19.70
2019-06-20T23:26:24.553Z,19.70
2019-06-20T23:29:10.038Z,19.70
2019-06-20T23:31:37.086Z,19.70
2019-06-20T23:34:04.184Z,19.60
2019-06-20T23:36:31.122Z,19.50
2019-06-20T23:38:59.267Z,19.50
2019-06-20T23:41:26.180Z,19.50
2019-06-20T23:43:53.163Z,19.40
2019-06-20T23:46:20.217Z,19.40
2019-06-20T23:48:47.094Z,19.40
2019-06-20T23:51:25.060Z,19.40
2019-06-20T23:53:42.937Z,19.40
2019-06-20T23:56:11.115Z,19.40
2019-06-20T23:58:38.268Z,19.30
